createdAt,value
2023-02-23T00:01:29.435Z,28.47
2023-02-23T00:03:58.628Z,22.70
2023-02-23T00:08:57.626Z,23.52
2023-02-23T00:13:52.052Z,29.23
2023-02-23T00:18:56.446Z,37.25
2023-02-23T00:21:29.482Z,35.13
2023-02-23T00:24:07.577Z,32.20
2023-02-23T00:26:38.501Z,30.50
2023-02-23T00:29:15.575Z,26.57
2023-02-23T00:34:12.043Z,19.95
2023-02-23T00:39:24.320Z,25.40
2023-02-23T00:41:53.347Z,18.50
2023-02-23T00:44:23.564Z,21.40
2023-02-23T00:46:52.524Z,25.55
2023-02-23T00:49:22.971Z,19.65
2023-02-23T00:51:51.682Z,20.43
2023-02-23T00:54:20.974Z,21.37
2023-02-23T00:56:49.627Z,20.17
2023-02-23T00:59:18.285Z,23.98
2023-02-23T01:01:46.328Z,23.00
2023-02-23T01:04:14.339Z,24.47
2023-02-23T01:06:42.813Z,31.20
2023-02-23T01:09:16.367Z,26.30
2023-02-23T01:11:45.975Z,19.40
2023-02-23T01:14:12.717Z,19.32
2023-02-23T01:16:41.713Z,21.65
2023-02-23T01:19:10.827Z,22.52
2023-02-23T01:24:08.751Z,19.02
2023-02-23T01:26:40.620Z,18.70
2023-02-23T01:29:12.367Z,17.23
2023-02-23T01:31:43.873Z,15.08
2023-02-23T01:34:14.071Z,16.25
2023-02-23T01:36:43.884Z,15.50
2023-02-23T01:39:16.704Z,13.80
2023-02-23T01:41:45.242Z,17.02
2023-02-23T01:46:43.238Z,14.65
2023-02-23T01:54:21.479Z,12.40
2023-02-23T01:59:18.127Z,14.98
2023-02-23T02:04:16.088Z,16.87
2023-02-23T02:06:47.115Z,19.48
2023-02-23T02:09:17.317Z,16.67
2023-02-23T02:11:46.096Z,15.60
2023-02-23T02:14:27.178Z,14.80
2023-02-23T02:17:10.277Z,15.65
2023-02-23T02:20:32.705Z,18.95
2023-02-23T02:23:43.733Z,13.20
2023-02-23T02:26:29.084Z,16.87
2023-02-23T02:29:34.155Z,17.95
2023-02-23T02:32:22.220Z,16.12
2023-02-23T02:35:10.150Z,20.10
2023-02-23T02:38:07.290Z,18.42
2023-02-23T02:40:55.356Z,16.90
2023-02-23T02:43:46.541Z,19.65
2023-02-23T02:46:24.897Z,18.17
2023-02-23T02:49:21.023Z,17.00
2023-02-23T02:51:57.015Z,14.18
2023-02-23T02:54:33.536Z,17.42
2023-02-23T02:57:04.591Z,15.68
2023-02-23T03:00:04.212Z,15.63
2023-02-23T03:02:54.957Z,12.98
2023-02-23T03:11:31.042Z,21.57
2023-02-23T03:14:53.632Z,24.15
2023-02-23T03:18:03.219Z,17.92
2023-02-23T03:20:57.667Z,19.75
2023-02-23T03:24:06.749Z,17.07
2023-02-23T03:27:11.464Z,15.20
2023-02-23T03:32:33.495Z,16.30
2023-02-23T03:35:27.827Z,13.65
2023-02-23T03:38:22.805Z,10.45
2023-02-23T03:41:11.901Z,14.38
2023-02-23T03:43:59.514Z,13.38
2023-02-23T03:46:48.871Z,13.80
2023-02-23T03:49:38.757Z,16.65
2023-02-23T03:52:33.374Z,16.15
2023-02-23T03:55:25.047Z,13.05
2023-02-23T03:58:14.871Z,14.23
2023-02-23T04:03:35.716Z,11.85
2023-02-23T04:06:26.353Z,9.70
2023-02-23T04:11:46.678Z,12.85
2023-02-23T04:14:34.850Z,10.85
2023-02-23T04:17:04.763Z,10.80
2023-02-23T04:19:32.700Z,10.18
2023-02-23T04:24:26.439Z,12.35
2023-02-23T04:26:54.297Z,10.05
2023-02-23T04:29:21.964Z,10.50
2023-02-23T04:31:49.873Z,9.15
2023-02-23T04:34:17.791Z,8.95
2023-02-23T04:36:45.470Z,9.38
2023-02-23T04:39:13.041Z,8.30
2023-02-23T04:41:40.953Z,14.83
2023-02-23T04:44:08.404Z,17.48
2023-02-23T04:46:36.088Z,19.00
2023-02-23T04:49:03.788Z,27.93
2023-02-23T04:51:33.263Z,40.05
2023-02-23T04:54:01.897Z,48.80
2023-02-23T04:56:29.895Z,43.68
2023-02-23T04:58:58.156Z,40.52
2023-02-23T05:01:26.740Z,36.95
2023-02-23T05:03:55.271Z,42.58
2023-02-23T05:06:22.948Z,42.27
2023-02-23T05:08:50.591Z,54.88
2023-02-23T05:11:19.932Z,63.33
2023-02-23T05:13:47.513Z,67.22
2023-02-23T05:16:15.313Z,71.20
2023-02-23T05:21:11.110Z,60.33
2023-02-23T05:26:08.951Z,62.10
2023-02-23T05:31:03.992Z,45.35
2023-02-23T05:36:02.422Z,48.48
2023-02-23T05:40:55.987Z,32.88
2023-02-23T05:43:23.993Z,34.38
2023-02-23T05:45:51.852Z,29.20
2023-02-23T05:48:19.899Z,37.90
2023-02-23T05:50:47.506Z,31.95
2023-02-23T05:53:15.669Z,33.33
2023-02-23T05:55:43.642Z,26.93
2023-02-23T05:58:17.177Z,27.80
2023-02-23T06:00:46.697Z,23.90
2023-02-23T06:03:15.528Z,26.55
2023-02-23T06:05:43.247Z,26.02
2023-02-23T06:08:11.002Z,22.48
2023-02-23T06:13:04.673Z,24.47
2023-02-23T06:17:58.841Z,19.30
2023-02-23T06:20:26.758Z,20.95
2023-02-23T06:22:54.468Z,19.17
2023-02-23T06:25:22.251Z,19.87
2023-02-23T06:27:50.159Z,18.02
2023-02-23T06:30:19.395Z,18.75
2023-02-23T06:32:47.876Z,18.92
2023-02-23T06:35:18.335Z,17.05
2023-02-23T06:37:46.061Z,19.20
2023-02-23T06:40:13.878Z,19.30
2023-02-23T06:42:41.670Z,20.70
2023-02-23T06:45:10.628Z,19.67
2023-02-23T06:47:38.798Z,19.10
2023-02-23T06:50:09.061Z,19.87
2023-02-23T06:52:37.034Z,21.45
2023-02-23T06:55:06.987Z,20.82
2023-02-23T06:57:34.678Z,28.32
2023-02-23T07:00:05.127Z,19.45
2023-02-23T07:02:32.060Z,22.87
2023-02-23T07:04:59.800Z,21.33
2023-02-23T07:07:28.139Z,19.12
2023-02-23T07:09:55.888Z,31.50
2023-02-23T07:12:23.494Z,24.37
2023-02-23T07:14:51.251Z,18.27
2023-02-23T07:19:47.092Z,21.10
2023-02-23T07:24:41.221Z,21.57
2023-02-23T07:27:09.154Z,30.23
2023-02-23T07:29:37.095Z,25.27
2023-02-23T07:32:05.486Z,29.70
2023-02-23T07:34:33.036Z,28.60
2023-02-23T07:37:00.749Z,39.08
2023-02-23T07:39:28.528Z,31.93
2023-02-23T07:41:56.062Z,46.90
2023-02-23T07:46:52.232Z,30.52
2023-02-23T07:51:46.447Z,20.43
2023-02-23T07:54:15.156Z,19.37
2023-02-23T07:56:42.284Z,27.58
2023-02-23T07:59:10.046Z,18.87
2023-02-23T08:01:38.300Z,22.37
2023-02-23T08:04:06.422Z,22.07
2023-02-23T08:06:33.960Z,26.50
2023-02-23T08:09:04.165Z,19.30
2023-02-23T08:11:32.923Z,22.70
2023-02-23T08:14:00.506Z,24.80
2023-02-23T08:16:29.819Z,20.02
2023-02-23T08:18:59.140Z,40.15
2023-02-23T08:21:28.889Z,19.73
2023-02-23T08:23:59.628Z,32.35
2023-02-23T08:26:27.377Z,25.25
2023-02-23T08:28:55.489Z,17.42
2023-02-23T08:31:24.698Z,25.15
2023-02-23T08:33:53.369Z,16.50
2023-02-23T08:36:21.132Z,13.62
2023-02-23T08:38:49.178Z,28.25
2023-02-23T08:41:17.713Z,43.85
2023-02-23T08:43:46.113Z,26.30
2023-02-23T08:46:13.982Z,21.15
2023-02-23T08:48:41.483Z,17.70
2023-02-23T08:51:09.353Z,15.58
2023-02-23T08:53:37.297Z,18.65
2023-02-23T08:56:07.551Z,18.05
2023-02-23T08:58:36.489Z,22.67
2023-02-23T09:01:05.855Z,22.82
2023-02-23T09:03:38.234Z,26.48
2023-02-23T09:06:12.557Z,25.65
2023-02-23T09:08:40.378Z,24.72
2023-02-23T09:11:08.099Z,20.40
2023-02-23T09:13:35.666Z,18.12
2023-02-23T09:16:03.883Z,21.48
2023-02-23T09:18:32.192Z,18.45
2023-02-23T09:21:07.959Z,19.85
2023-02-23T09:23:35.894Z,19.20
2023-02-23T09:28:37.633Z,30.65
2023-02-23T09:33:34.004Z,16.55
2023-02-23T09:36:08.714Z,15.38
2023-02-23T09:38:37.437Z,16.35
2023-02-23T09:41:13.187Z,12.90
2023-02-23T09:44:14.603Z,15.03
2023-02-23T09:47:07.088Z,42.58
2023-02-23T09:49:39.062Z,13.40
2023-02-23T09:54:42.833Z,32.75
2023-02-23T09:57:19.062Z,22.45
2023-02-23T09:59:48.038Z,22.75
2023-02-23T10:02:38.706Z,17.87
2023-02-23T10:09:26.828Z,19.87
2023-02-23T10:12:05.643Z,31.87
2023-02-23T10:15:03.541Z,13.98
2023-02-23T10:17:40.049Z,17.98
2023-02-23T10:20:52.879Z,11.25
2023-02-23T10:23:35.837Z,14.25
2023-02-23T10:26:06.939Z,13.43
2023-02-23T10:31:32.398Z,13.38
2023-02-23T10:34:06.607Z,20.43
2023-02-23T10:36:45.827Z,10.05
2023-02-23T10:39:14.087Z,17.65
2023-02-23T10:41:43.131Z,15.25
2023-02-23T10:44:19.114Z,20.37
2023-02-23T10:49:35.335Z,13.43
2023-02-23T10:52:04.135Z,10.95
2023-02-23T10:54:47.821Z,20.20
2023-02-23T10:57:31.967Z,7.05
2023-02-23T11:00:19.902Z,9.10
2023-02-23T11:05:37.055Z,14.65
2023-02-23T11:08:25.088Z,9.68
2023-02-23T11:11:28.709Z,7.37
2023-02-23T11:13:57.453Z,12.85
2023-02-23T11:16:29.990Z,6.22
2023-02-23T11:19:03.225Z,6.67
2023-02-23T11:21:38.169Z,6.33
2023-02-23T11:24:19.630Z,7.33
2023-02-23T11:26:51.427Z,8.13
2023-02-23T11:29:38.843Z,8.30
2023-02-23T11:32:23.106Z,7.60
2023-02-23T11:37:22.827Z,10.55
2023-02-23T11:40:04.972Z,45.48
2023-02-23T11:42:33.520Z,15.72
2023-02-23T11:45:21.140Z,9.43
2023-02-23T11:50:32.132Z,10.55
2023-02-23T11:53:31.016Z,38.73
2023-02-23T11:58:46.790Z,8.08
2023-02-23T12:01:18.260Z,19.87
2023-02-23T12:06:41.080Z,6.30
2023-02-23T12:09:29.322Z,20.75
2023-02-23T12:12:08.328Z,5.83
2023-02-23T12:15:02.208Z,5.42
2023-02-23T12:17:35.488Z,5.92
2023-02-23T12:23:05.972Z,5.10
2023-02-23T12:26:00.418Z,12.35
2023-02-23T12:31:10.431Z,15.75
2023-02-23T12:33:45.967Z,5.78
2023-02-23T12:36:25.950Z,5.95
2023-02-23T12:39:04.830Z,9.98
2023-02-23T12:41:37.354Z,8.10
2023-02-23T12:46:52.495Z,9.90
2023-02-23T12:52:05.749Z,5.67
2023-02-23T12:54:34.396Z,10.43
2023-02-23T12:59:57.719Z,35.95
2023-02-23T13:02:24.630Z,13.85
2023-02-23T13:05:14.793Z,9.08
2023-02-23T13:08:13.233Z,14.90
2023-02-23T13:10:48.291Z,18.70
2023-02-23T13:13:27.468Z,7.45
2023-02-23T13:16:18.885Z,8.85
2023-02-23T13:19:25.086Z,5.35
2023-02-23T13:22:13.726Z,8.33
2023-02-23T13:24:46.096Z,6.90
2023-02-23T13:27:27.492Z,4.08
2023-02-23T13:29:58.594Z,14.13
2023-02-23T13:32:33.811Z,8.05
2023-02-23T13:37:41.347Z,55.20
2023-02-23T13:40:49.284Z,47.00
2023-02-23T13:43:45.235Z,4.95
2023-02-23T13:46:25.157Z,6.92
2023-02-23T13:49:24.486Z,14.83
2023-02-23T13:51:59.416Z,19.27
2023-02-23T13:56:59.291Z,16.15
2023-02-23T13:59:45.054Z,9.98
2023-02-23T14:02:23.521Z,5.80
2023-02-23T14:04:51.793Z,8.03
2023-02-23T14:07:31.721Z,7.72
2023-02-23T14:10:18.069Z,11.90
2023-02-23T14:15:52.302Z,4.03
2023-02-23T14:18:25.585Z,9.03
2023-02-23T14:21:13.564Z,4.90
2023-02-23T14:26:36.356Z,5.92
2023-02-23T14:31:31.693Z,5.75
2023-02-23T14:36:32.823Z,17.15
2023-02-23T14:39:05.937Z,11.55
2023-02-23T14:41:42.302Z,44.10
2023-02-23T14:46:59.626Z,7.28
2023-02-23T14:49:48.845Z,30.17
2023-02-23T14:52:30.957Z,7.55
2023-02-23T14:55:23.075Z,13.78
2023-02-23T14:57:55.746Z,12.15
2023-02-23T15:00:32.518Z,9.00
2023-02-23T15:03:11.800Z,10.78
2023-02-23T15:05:56.285Z,15.00
2023-02-23T15:08:28.866Z,20.32
2023-02-23T15:11:13.032Z,20.75
2023-02-23T15:13:46.065Z,20.32
2023-02-23T15:18:52.868Z,19.57
2023-02-23T15:23:54.728Z,26.33
2023-02-23T15:26:36.333Z,24.37
2023-02-23T15:29:17.364Z,27.87
2023-02-23T15:34:13.522Z,19.20
2023-02-23T15:39:12.216Z,53.28
2023-02-23T15:41:42.575Z,131.82
2023-02-23T15:44:21.755Z,89.55
2023-02-23T15:46:59.704Z,88.50
2023-02-23T15:49:33.957Z,147.45
2023-02-23T15:54:39.169Z,217.57
2023-02-23T15:57:18.451Z,142.03
2023-02-23T15:59:48.339Z,99.07
2023-02-23T16:02:19.464Z,92.65
2023-02-23T16:07:21.780Z,101.75
2023-02-23T16:10:06.231Z,80.65
2023-02-23T16:12:39.494Z,91.17
2023-02-23T16:17:47.396Z,165.68
2023-02-23T16:20:28.659Z,156.90
2023-02-23T16:22:57.595Z,157.05
2023-02-23T16:28:07.669Z,101.80
2023-02-23T16:33:28.602Z,66.07
2023-02-23T16:41:31.067Z,68.10
2023-02-23T16:44:01.846Z,73.52
2023-02-23T16:47:07.622Z,71.80
2023-02-23T16:49:35.381Z,73.93
2023-02-23T16:54:29.878Z,124.25
2023-02-23T16:57:00.640Z,72.75
2023-02-23T16:59:30.362Z,110.92
2023-02-23T17:04:24.241Z,97.00
2023-02-23T17:09:21.093Z,269.02
2023-02-23T17:11:48.707Z,86.95
2023-02-23T17:14:27.387Z,101.15
2023-02-23T17:16:55.088Z,97.08
2023-02-23T17:19:24.684Z,88.07
2023-02-23T17:21:57.730Z,84.62
2023-02-23T17:24:26.003Z,77.85
2023-02-23T17:26:55.101Z,81.25
2023-02-23T17:31:51.793Z,149.18
2023-02-23T17:34:19.753Z,187.85
2023-02-23T17:36:47.590Z,220.27
2023-02-23T17:39:16.269Z,84.75
2023-02-23T17:41:43.985Z,70.00
2023-02-23T17:44:15.031Z,70.22
2023-02-23T17:46:45.901Z,61.83
2023-02-23T17:49:16.516Z,72.78
2023-02-23T17:51:44.234Z,69.72
2023-02-23T17:54:13.841Z,66.42
2023-02-23T17:56:43.046Z,70.65
2023-02-23T17:59:10.663Z,52.73
2023-02-23T18:01:40.145Z,37.93
2023-02-23T18:04:11.758Z,36.98
2023-02-23T18:06:39.643Z,40.65
2023-02-23T18:09:07.990Z,43.38
2023-02-23T18:14:15.885Z,108.95
2023-02-23T18:16:43.873Z,80.00
2023-02-23T18:19:32.319Z,81.55
2023-02-23T18:22:51.798Z,91.92
2023-02-23T18:25:26.384Z,68.37
2023-02-23T18:27:55.411Z,67.97
2023-02-23T18:30:24.776Z,63.63
2023-02-23T18:35:19.008Z,51.33
2023-02-23T18:37:46.670Z,50.40
2023-02-23T18:40:15.038Z,48.42
2023-02-23T18:42:42.875Z,59.63
2023-02-23T18:45:12.315Z,48.20
2023-02-23T18:47:42.480Z,46.05
2023-02-23T18:50:12.282Z,52.45
2023-02-23T18:55:08.456Z,65.97
2023-02-23T18:57:36.552Z,70.50
2023-02-23T19:00:08.390Z,79.50
2023-02-23T19:05:03.985Z,91.75
2023-02-23T19:10:02.440Z,45.98
2023-02-23T19:12:31.274Z,31.73
2023-02-23T19:14:59.026Z,30.48
2023-02-23T19:20:00.251Z,29.07
2023-02-23T19:24:55.309Z,29.92
2023-02-23T19:29:53.143Z,32.05
2023-02-23T19:32:21.366Z,33.13
2023-02-23T19:34:49.265Z,33.85
2023-02-23T19:37:17.431Z,38.65
2023-02-23T19:39:45.861Z,41.15
2023-02-23T19:44:44.702Z,35.00
2023-02-23T19:47:12.763Z,30.55
2023-02-23T19:49:42.612Z,34.58
2023-02-23T19:52:10.818Z,37.15
2023-02-23T19:54:38.957Z,41.30
2023-02-23T19:57:09.055Z,36.08
2023-02-23T19:59:37.638Z,42.10
2023-02-23T20:02:06.223Z,40.70
2023-02-23T20:04:37.204Z,35.28
2023-02-23T20:07:05.129Z,40.12
2023-02-23T20:09:32.970Z,41.28
2023-02-23T20:12:01.176Z,44.55
2023-02-23T20:14:28.932Z,43.75
2023-02-23T20:16:57.390Z,42.53
2023-02-23T20:19:28.655Z,39.50
2023-02-23T20:21:56.859Z,41.13
2023-02-23T20:24:24.716Z,42.67
2023-02-23T20:26:54.727Z,40.23
2023-02-23T20:29:23.037Z,45.25
2023-02-23T20:31:51.642Z,48.60
2023-02-23T20:34:25.006Z,43.05
2023-02-23T20:39:19.364Z,37.48
2023-02-23T20:41:49.383Z,33.10
2023-02-23T20:44:16.488Z,33.73
2023-02-23T20:46:44.703Z,42.23
2023-02-23T20:49:13.315Z,84.45
2023-02-23T20:54:11.359Z,93.62
2023-02-23T20:59:11.409Z,36.70
2023-02-23T21:04:05.630Z,35.80
2023-02-23T21:06:34.358Z,52.98
2023-02-23T21:09:04.290Z,33.13
2023-02-23T21:14:00.226Z,40.98
2023-02-23T21:18:58.217Z,32.33
2023-02-23T21:23:53.028Z,32.03
2023-02-23T21:26:21.793Z,41.45
2023-02-23T21:28:49.832Z,44.27
2023-02-23T21:31:17.810Z,33.30
2023-02-23T21:33:45.587Z,34.13
2023-02-23T21:36:13.536Z,39.40
2023-02-23T21:38:44.174Z,58.95
2023-02-23T21:41:13.919Z,61.85
2023-02-23T21:43:44.205Z,47.67
2023-02-23T21:48:43.513Z,43.45
2023-02-23T21:53:41.846Z,33.30
2023-02-23T21:56:22.491Z,32.45
2023-02-23T22:01:25.082Z,33.65
2023-02-23T22:06:28.500Z,46.95
2023-02-23T22:08:57.119Z,38.95
2023-02-23T22:11:27.273Z,40.95
2023-02-23T22:13:58.590Z,32.03
2023-02-23T22:19:00.520Z,30.55
2023-02-23T22:23:54.533Z,26.30
2023-02-23T22:26:22.462Z,24.50
2023-02-23T22:28:50.700Z,24.57
2023-02-23T22:31:18.818Z,23.10
2023-02-23T22:33:46.979Z,24.87
2023-02-23T22:36:16.762Z,27.07
2023-02-23T22:38:46.083Z,29.12
2023-02-23T22:41:16.191Z,26.80
2023-02-23T22:43:49.997Z,26.75
2023-02-23T22:46:17.963Z,30.82
2023-02-23T22:48:46.481Z,29.25
2023-02-23T22:53:40.298Z,28.57
2023-02-23T22:58:36.393Z,31.45
2023-02-23T23:03:36.299Z,30.20
2023-02-23T23:08:35.263Z,32.83
2023-02-23T23:11:10.672Z,29.37
2023-02-23T23:16:11.326Z,38.90
2023-02-23T23:21:13.924Z,55.67
2023-02-23T23:26:13.070Z,44.13
2023-02-23T23:28:46.987Z,46.42
2023-02-23T23:33:48.407Z,52.93
2023-02-23T23:38:42.905Z,58.42
2023-02-23T23:43:41.410Z,53.20
2023-02-23T23:48:36.211Z,52.73
2023-02-23T23:53:34.073Z,60.85
2023-02-23T23:56:10.403Z,59.33
2023-02-23T23:58:38.262Z,56.90
